Time;durP1;ratioP1;P1;durP2;ratioP2;P2;SDS_P1;SDS_P2;PMS_P1;PMS_P2;Temp;Humidity;BMP_temperature;BMP_pressure;BME280_temperature;BME280_humidity;BME280_pressure;Samples;Min_cycle;Max_cycle;Signal;HPM_P1;HPM_P2
2022/06/29 00:01:18;;;;;;;11.00;7.13;;;21.30;99.90;;;;;;5056949;28;20017;-75
2022/06/29 00:03:45;;;;;;;8.07;6.85;;;21.20;99.90;;;;;;5053989;28;20475;-74
2022/06/29 00:06:11;;;;;;;8.75;6.88;;;21.20;99.90;;;;;;5060441;28;20455;-75
2022/06/29 00:08:36;;;;;;;7.63;6.88;;;21.20;99.90;;;;;;5065477;28;20024;-75
2022/06/29 00:11:03;;;;;;;7.78;7.07;;;21.30;99.90;;;;;;5042230;28;20403;-75
2022/06/29 00:13:29;;;;;;;8.57;6.32;;;21.30;99.90;;;;;;5036845;28;20061;-75
2022/06/29 00:15:54;;;;;;;9.45;7.50;;;21.20;99.90;;;;;;5051699;28;20494;-74
2022/06/29 00:18:20;;;;;;;7.60;6.90;;;21.30;99.90;;;;;;5060101;28;20021;-74
2022/06/29 00:20:46;;;;;;;7.70;7.00;;;21.00;99.90;;;;;;5023294;28;20030;-74
2022/06/29 00:23:11;;;;;;;7.68;7.00;;;21.00;99.90;;;;;;5048681;28;20554;-74
2022/06/29 00:25:37;;;;;;;7.78;6.97;;;21.10;99.90;;;;;;5046955;28;20462;-74
2022/06/29 00:28:03;;;;;;;9.07;7.35;;;21.10;99.90;;;;;;5049763;28;20032;-75
2022/06/29 00:30:29;;;;;;;8.15;7.45;;;21.00;99.90;;;;;;5035874;28;20036;-74
2022/06/29 00:32:54;;;;;;;8.02;7.32;;;21.10;99.90;;;;;;5048163;28;20037;-74
2022/06/29 00:35:20;;;;;;;8.02;7.22;;;21.20;99.90;;;;;;5063819;28;20094;-75
2022/06/29 00:37:45;;;;;;;10.77;8.35;;;21.10;99.90;;;;;;5048355;28;20585;-75
2022/06/29 00:40:11;;;;;;;8.60;7.70;;;20.90;99.90;;;;;;5042708;28;20539;-74
2022/06/29 00:42:37;;;;;;;8.57;7.78;;;21.00;99.90;;;;;;5038752;28;20078;-76
2022/06/29 00:45:03;;;;;;;8.75;7.68;;;21.10;99.90;;;;;;5058364;28;20025;-76
2022/06/29 00:47:29;;;;;;;8.20;7.40;;;21.10;99.90;;;;;;5056703;28;20119;-75
2022/06/29 00:49:55;;;;;;;8.30;7.50;;;21.00;99.90;;;;;;5071738;28;20476;-74
2022/06/29 00:52:25;;;;;;;8.27;7.57;;;20.90;99.90;;;;;;5052486;28;20021;-74
2022/06/29 00:54:57;;;;;;;7.70;6.97;;;20.90;99.90;;;;;;5047839;28;20018;-73
2022/06/29 00:57:25;;;;;;;8.40;7.70;;;21.00;99.90;;;;;;5048850;28;20479;-74
2022/06/29 00:59:55;;;;;;;8.48;7.47;;;20.70;99.90;;;;;;5041635;28;20025;-73
2022/06/29 01:02:23;;;;;;;8.80;8.00;;;21.00;99.90;;;;;;5025179;28;20045;-73
2022/06/29 01:04:50;;;;;;;10.43;8.13;;;21.00;99.90;;;;;;5033401;28;20029;-74
2022/06/29 01:07:18;;;;;;;9.00;8.13;;;20.90;99.90;;;;;;5051106;28;20025;-73
2022/06/29 01:09:44;;;;;;;10.60;8.10;;;20.80;99.90;;;;;;5051296;28;20029;-73
2022/06/29 01:12:11;;;;;;;8.45;7.75;;;20.60;99.90;;;;;;5050632;28;20032;-73
2022/06/29 01:14:36;;;;;;;9.25;8.35;;;20.60;99.90;;;;;;5051059;28;20425;-73
2022/06/29 01:17:03;;;;;;;9.35;8.45;;;20.50;99.90;;;;;;5051112;28;20036;-73
2022/06/29 01:19:29;;;;;;;10.65;8.15;;;20.50;99.90;;;;;;5051169;28;20436;-75
2022/06/29 01:22:04;;;;;;;8.80;8.00;;;20.40;99.90;;;;;;5056697;28;20035;-75
2022/06/29 01:24:30;;;;;;;9.43;8.53;;;20.80;99.90;;;;;;5057771;28;20021;-75
2022/06/29 01:26:56;;;;;;;10.95;9.45;;;20.40;99.90;;;;;;5063132;28;20071;-75
2022/06/29 01:29:21;;;;;;;9.32;8.43;;;20.30;99.90;;;;;;5046576;28;20116;-75
2022/06/29 01:31:52;;;;;;;11.30;9.07;;;20.70;99.90;;;;;;5040672;28;20028;-75
2022/06/29 01:34:18;;;;;;;9.88;8.93;;;20.60;99.90;;;;;;5057568;28;20449;-75
2022/06/29 01:36:43;;;;;;;9.32;8.48;;;20.80;99.90;;;;;;5071276;28;20111;-75
2022/06/29 01:39:09;;;;;;;10.18;9.18;;;21.00;99.90;;;;;;5054906;28;20032;-74
2022/06/29 01:41:35;;;;;;;9.65;8.60;;;20.90;99.90;;;;;;5050389;28;20029;-74
2022/06/29 01:44:00;;;;;;;10.38;9.35;;;20.90;99.90;;;;;;5052449;28;20047;-74
2022/06/29 01:46:26;;;;;;;10.40;9.35;;;20.60;99.90;;;;;;5059396;28;20065;-75
2022/06/29 01:48:52;;;;;;;10.95;9.93;;;20.40;99.90;;;;;;5056099;28;20028;-75
2022/06/29 01:51:17;;;;;;;11.02;9.93;;;20.40;99.90;;;;;;5060308;28;20029;-75
2022/06/29 01:53:43;;;;;;;10.82;9.73;;;20.60;99.90;;;;;;5041896;28;20120;-75
2022/06/29 01:56:08;;;;;;;11.10;10.02;;;20.50;99.90;;;;;;5047571;28;20027;-75
2022/06/29 01:58:34;;;;;;;10.55;9.48;;;20.70;99.90;;;;;;5069559;28;20406;-76
2022/06/29 02:00:59;;;;;;;11.77;10.52;;;20.40;99.90;;;;;;5036603;28;20029;-74
2022/06/29 02:03:25;;;;;;;10.48;9.50;;;20.50;99.90;;;;;;5067902;28;20021;-74
2022/06/29 02:05:51;;;;;;;10.48;9.48;;;20.60;99.90;;;;;;5034731;28;20078;-75
2022/06/29 02:08:16;;;;;;;10.65;9.70;;;20.30;99.90;;;;;;5063153;28;20016;-75
2022/06/29 02:10:42;;;;;;;10.85;9.85;;;20.50;99.90;;;;;;5036211;28;20028;-75
2022/06/29 02:13:07;;;;;;;11.10;10.10;;;20.50;99.90;;;;;;5036328;28;20406;-75
2022/06/29 02:15:33;;;;;;;12.13;11.00;;;20.50;99.90;;;;;;5046577;28;20479;-76
2022/06/29 02:17:59;;;;;;;12.30;11.10;;;20.40;99.90;;;;;;5049514;28;20107;-76
2022/06/29 02:20:24;;;;;;;11.82;10.63;;;20.40;99.90;;;;;;5043619;28;20036;-77
2022/06/29 02:22:50;;;;;;;12.88;10.82;;;20.40;99.90;;;;;;5060640;28;20543;-75
2022/06/29 02:25:15;;;;;;;11.75;10.65;;;20.50;99.90;;;;;;5058652;28;20018;-75
2022/06/29 02:27:44;;;;;;;13.20;10.80;;;20.50;99.90;;;;;;5032515;28;20013;-75
2022/06/29 02:30:11;;;;;;;11.88;10.70;;;20.50;99.90;;;;;;5047999;28;20036;-75
2022/06/29 02:35:35;;;;;;;11.35;10.25;;;20.50;99.90;;;;;;5021733;28;20036;-75
2022/06/29 02:38:00;;;;;;;12.05;9.75;;;20.60;99.90;;;;;;5042328;28;20488;-75
2022/06/29 02:40:26;;;;;;;11.35;10.30;;;20.40;99.90;;;;;;5060971;28;20036;-75
2022/06/29 02:42:51;;;;;;;12.00;10.80;;;20.30;99.90;;;;;;5035672;28;20028;-75
2022/06/29 02:45:17;;;;;;;11.82;10.25;;;20.20;99.90;;;;;;5065792;28;20024;-76
2022/06/29 02:47:42;;;;;;;11.57;10.20;;;20.00;99.90;;;;;;5055232;28;20052;-75
2022/06/29 02:50:08;;;;;;;11.65;10.52;;;20.50;99.90;;;;;;5043874;28;20055;-75
2022/06/29 02:52:34;;;;;;;12.48;11.27;;;20.40;99.90;;;;;;5048194;28;20021;-75
2022/06/29 02:55:00;;;;;;;12.30;11.20;;;20.20;99.90;;;;;;5052419;28;20021;-74
2022/06/29 02:57:25;;;;;;;12.10;11.00;;;20.30;99.90;;;;;;5041763;28;20039;-75
2022/06/29 02:59:51;;;;;;;12.40;11.18;;;20.20;99.90;;;;;;5053705;28;20104;-73
2022/06/29 03:02:16;;;;;;;13.82;11.68;;;20.10;99.90;;;;;;5043810;28;20112;-73
2022/06/29 03:04:42;;;;;;;12.15;10.98;;;20.50;99.90;;;;;;5053251;28;20537;-73
2022/06/29 03:07:07;;;;;;;12.55;11.35;;;20.20;99.90;;;;;;5066446;28;20025;-74
2022/06/29 03:09:33;;;;;;;12.45;11.10;;;20.10;99.90;;;;;;5064807;28;20025;-74
2022/06/29 03:11:58;;;;;;;13.18;11.90;;;20.20;99.90;;;;;;5052193;28;20029;-74
2022/06/29 03:14:24;;;;;;;12.27;11.07;;;20.20;99.90;;;;;;5052852;28;20810;-75
2022/06/29 03:16:50;;;;;;;12.95;11.73;;;20.30;99.90;;;;;;5066345;28;20021;-75
2022/06/29 03:19:15;;;;;;;12.77;11.57;;;20.10;99.90;;;;;;5034744;28;20029;-75
2022/06/29 03:21:41;;;;;;;13.30;12.00;;;20.20;99.90;;;;;;5057873;28;20028;-75
2022/06/29 03:24:06;;;;;;;13.93;12.43;;;20.20;99.90;;;;;;5054089;28;20151;-75
2022/06/29 03:26:32;;;;;;;13.13;11.90;;;19.90;99.90;;;;;;5066239;28;20021;-75
2022/06/29 03:28:58;;;;;;;13.48;12.18;;;20.00;99.90;;;;;;5065083;28;20024;-75
2022/06/29 03:31:23;;;;;;;13.57;12.35;;;20.00;99.90;;;;;;5058657;28;20445;-75
2022/06/29 03:33:50;;;;;;;13.00;11.70;;;19.90;99.90;;;;;;5042126;28;20094;-75
2022/06/29 03:36:15;;;;;;;12.93;11.38;;;19.90;99.90;;;;;;5048210;28;20389;-75
2022/06/29 03:38:41;;;;;;;15.32;12.30;;;20.00;99.90;;;;;;5052621;28;20025;-73
2022/06/29 03:41:07;;;;;;;12.70;11.50;;;19.90;99.90;;;;;;5047371;28;20033;-74
2022/06/29 03:43:32;;;;;;;13.13;11.82;;;19.90;99.90;;;;;;5054067;28;20344;-73
2022/06/29 03:45:58;;;;;;;12.80;11.60;;;19.90;99.90;;;;;;5066479;28;20036;-73
2022/06/29 03:48:24;;;;;;;13.07;11.75;;;19.90;99.90;;;;;;5051065;28;20028;-75
2022/06/29 03:50:49;;;;;;;11.73;10.52;;;19.90;99.90;;;;;;5057120;28;20035;-74
2022/06/29 03:53:15;;;;;;;12.60;11.32;;;19.90;99.90;;;;;;5045573;28;20028;-74
2022/06/29 03:55:41;;;;;;;13.57;11.13;;;19.90;99.90;;;;;;5055868;28;20021;-74
2022/06/29 03:58:07;;;;;;;12.32;11.13;;;20.00;99.90;;;;;;5064080;28;20025;-74
2022/06/29 04:00:32;;;;;;;11.32;10.23;;;20.00;99.90;;;;;;5057918;28;20538;-73
2022/06/29 04:02:58;;;;;;;11.70;10.60;;;19.90;99.90;;;;;;5060491;28;20053;-73
2022/06/29 04:05:24;;;;;;;13.05;11.23;;;19.90;99.90;;;;;;5065580;28;20021;-73
2022/06/29 04:07:49;;;;;;;12.73;11.35;;;19.80;99.90;;;;;;5052025;28;20021;-74
2022/06/29 04:10:15;;;;;;;12.57;11.38;;;19.70;99.90;;;;;;5051340;28;20053;-74
2022/06/29 04:12:40;;;;;;;13.13;11.82;;;19.80;99.90;;;;;;5052013;28;20107;-74
2022/06/29 04:15:06;;;;;;;17.25;12.02;;;19.80;99.90;;;;;;5065065;28;20020;-71
2022/06/29 04:17:32;;;;;;;14.48;12.35;;;19.60;99.90;;;;;;5051797;28;20422;-76
2022/06/29 04:19:58;;;;;;;13.13;11.73;;;19.80;99.90;;;;;;5056057;28;20024;-72
2022/06/29 04:22:24;;;;;;;12.68;11.38;;;19.90;99.90;;;;;;5059903;28;20048;-74
2022/06/29 04:24:50;;;;;;;13.02;11.70;;;19.50;99.90;;;;;;5057157;28;20048;-76
2022/06/29 04:27:17;;;;;;;12.30;11.20;;;19.50;99.90;;;;;;5051734;28;20029;-75
2022/06/29 04:29:43;;;;;;;12.10;11.00;;;19.50;99.90;;;;;;5052719;28;20070;-75
2022/06/29 04:32:09;;;;;;;11.88;10.68;;;19.50;99.90;;;;;;5048555;28;20032;-74
2022/06/29 04:34:35;;;;;;;12.35;10.98;;;19.70;99.90;;;;;;5051200;28;20067;-75
2022/06/29 04:37:01;;;;;;;12.30;11.10;;;19.80;99.90;;;;;;5051541;28;20432;-74
2022/06/29 04:39:26;;;;;;;12.65;10.35;;;19.80;99.90;;;;;;5051459;28;20024;-74
2022/06/29 04:41:53;;;;;;;11.90;10.70;;;20.00;99.90;;;;;;5050912;28;20024;-75
2022/06/29 04:44:19;;;;;;;12.10;10.90;;;19.80;99.90;;;;;;5052856;28;20040;-75
2022/06/29 04:46:44;;;;;;;11.55;10.35;;;20.00;99.90;;;;;;5054590;28;20056;-74
2022/06/29 04:49:10;;;;;;;12.23;11.10;;;20.10;99.90;;;;;;5040371;28;20025;-74
2022/06/29 04:51:35;;;;;;;12.55;11.13;;;19.90;99.90;;;;;;5062264;28;20112;-75
2022/06/29 04:54:02;;;;;;;12.05;10.85;;;20.20;99.90;;;;;;5071285;28;20386;-72
2022/06/29 04:56:30;;;;;;;11.57;10.48;;;20.20;99.90;;;;;;5041787;28;20029;-74
2022/06/29 04:58:57;;;;;;;11.40;10.30;;;20.20;99.90;;;;;;5056509;28;20021;-75
2022/06/29 05:01:24;;;;;;;11.18;10.18;;;20.30;99.90;;;;;;5054202;28;20494;-75
2022/06/29 05:03:50;;;;;;;11.05;9.98;;;20.40;99.90;;;;;;5056009;28;20471;-74
2022/06/29 05:06:16;;;;;;;11.40;10.25;;;20.40;99.90;;;;;;5058786;28;20067;-74
2022/06/29 05:08:42;;;;;;;12.43;10.50;;;20.50;99.90;;;;;;5057187;28;20056;-74
2022/06/29 05:11:08;;;;;;;11.02;9.93;;;20.50;99.90;;;;;;5052706;28;20587;-74
2022/06/29 05:13:34;;;;;;;11.27;10.02;;;20.60;99.90;;;;;;5071041;28;20024;-74
2022/06/29 05:16:00;;;;;;;10.77;9.73;;;20.70;99.90;;;;;;5058717;28;20499;-74
2022/06/29 05:18:26;;;;;;;10.88;9.80;;;20.60;99.90;;;;;;5062837;28;20060;-75
2022/06/29 05:20:52;;;;;;;10.43;9.43;;;20.80;99.90;;;;;;5045233;28;20428;-75
2022/06/29 05:23:19;;;;;;;10.07;9.13;;;20.70;99.90;;;;;;5062678;28;20101;-75
2022/06/29 05:25:44;;;;;;;10.80;9.57;;;21.00;99.90;;;;;;5031156;28;20028;-75
2022/06/29 05:28:11;;;;;;;10.50;9.48;;;21.00;99.90;;;;;;5050565;28;20025;-74
2022/06/29 05:30:38;;;;;;;9.93;8.93;;;20.90;99.90;;;;;;5067478;28;20052;-75
2022/06/29 05:33:04;;;;;;;10.57;8.93;;;20.90;99.90;;;;;;5041354;28;20514;-74
2022/06/29 05:35:33;;;;;;;10.40;9.40;;;21.30;99.90;;;;;;5068261;28;20046;-75
2022/06/29 05:38:00;;;;;;;10.45;9.35;;;21.30;99.90;;;;;;5041936;28;20131;-74
2022/06/29 05:40:25;;;;;;;10.00;9.00;;;21.40;99.90;;;;;;5054788;28;20028;-74
2022/06/29 05:42:51;;;;;;;10.50;9.40;;;21.60;99.90;;;;;;5049731;28;20086;-74
2022/06/29 05:45:17;;;;;;;10.50;8.75;;;21.80;99.90;;;;;;5067949;28;20060;-74
2022/06/29 05:47:42;;;;;;;9.63;8.60;;;21.80;99.90;;;;;;5054695;28;20542;-74
2022/06/29 05:50:10;;;;;;;9.75;8.75;;;21.90;99.90;;;;;;5042725;28;20672;-74
2022/06/29 05:52:36;;;;;;;10.23;9.13;;;21.80;99.90;;;;;;5054089;28;20028;-74
2022/06/29 05:55:05;;;;;;;9.57;8.60;;;22.00;99.90;;;;;;5054486;28;20021;-74
2022/06/29 05:57:33;;;;;;;10.80;8.38;;;22.00;99.90;;;;;;5054331;28;20025;-74
2022/06/29 06:00:00;;;;;;;9.80;8.85;;;21.90;99.90;;;;;;5068764;28;20104;-74
2022/06/29 06:02:25;;;;;;;8.93;8.02;;;22.00;99.90;;;;;;5050343;28;20044;-74
2022/06/29 06:04:52;;;;;;;9.88;8.60;;;22.10;99.90;;;;;;5060095;28;20029;-74
2022/06/29 06:07:18;;;;;;;9.23;8.35;;;22.00;99.90;;;;;;5045668;28;20032;-74
2022/06/29 06:09:43;;;;;;;9.13;8.32;;;22.10;99.90;;;;;;5042160;28;20402;-75
2022/06/29 06:12:09;;;;;;;8.63;7.85;;;22.00;99.90;;;;;;5053601;28;20033;-74
2022/06/29 06:14:34;;;;;;;8.82;7.85;;;22.20;99.90;;;;;;5053932;28;20027;-74
2022/06/29 06:17:00;;;;;;;9.15;8.23;;;22.10;99.90;;;;;;5054144;28;20036;-74
2022/06/29 06:19:26;;;;;;;9.00;8.15;;;22.10;99.90;;;;;;5053957;28;20029;-74
2022/06/29 06:21:51;;;;;;;8.32;7.63;;;22.10;99.90;;;;;;5053269;28;21256;-74
2022/06/29 06:24:17;;;;;;;9.05;8.10;;;22.20;99.90;;;;;;5054219;28;20009;-74
2022/06/29 06:26:42;;;;;;;8.75;7.88;;;22.40;99.90;;;;;;5043429;28;20030;-74
2022/06/29 06:29:08;;;;;;;8.98;8.07;;;22.40;99.90;;;;;;5050336;28;20029;-73
2022/06/29 06:31:34;;;;;;;8.90;8.00;;;22.50;99.90;;;;;;5066105;28;20100;-73
2022/06/29 06:34:00;;;;;;;9.48;7.90;;;22.50;99.90;;;;;;5057562;28;20063;-74
2022/06/29 06:36:26;;;;;;;8.30;7.60;;;22.30;99.90;;;;;;5047767;28;20047;-73
2022/06/29 06:38:52;;;;;;;8.63;7.93;;;22.20;99.90;;;;;;5053618;28;20479;-73
2022/06/29 06:41:25;;;;;;;9.43;8.52;;;22.30;99.90;;;;;;5066272;28;20079;-73
2022/06/29 06:44:00;;;;;;;9.02;8.23;;;22.40;99.90;;;;;;5053142;28;20017;-73
2022/06/29 06:46:28;;;;;;;8.35;7.53;;;22.30;99.90;;;;;;5073708;28;20024;-73
2022/06/29 06:48:53;;;;;;;8.77;7.68;;;22.30;99.90;;;;;;5073344;28;20033;-73
2022/06/29 06:51:20;;;;;;;8.38;7.57;;;22.30;99.90;;;;;;5063612;28;20051;-74
2022/06/29 06:53:47;;;;;;;9.05;8.23;;;22.30;99.90;;;;;;5053327;28;20150;-74
2022/06/29 06:56:13;;;;;;;9.02;8.13;;;22.40;99.90;;;;;;5025895;28;20026;-74
2022/06/29 06:58:39;;;;;;;8.60;7.90;;;22.40;99.90;;;;;;5049698;28;20383;-72
2022/06/29 07:01:06;;;;;;;8.13;7.32;;;22.50;99.90;;;;;;5058683;28;20502;-74
2022/06/29 07:03:32;;;;;;;9.10;8.27;;;22.50;99.90;;;;;;5052375;28;20036;-74
2022/06/29 07:06:00;;;;;;;7.72;7.03;;;22.40;99.90;;;;;;5035463;28;20427;-74
2022/06/29 07:08:26;;;;;;;9.13;8.20;;;22.50;99.90;;;;;;5058204;28;20016;-74
2022/06/29 07:10:52;;;;;;;8.70;7.55;;;22.40;99.90;;;;;;5057232;28;20022;-74
2022/06/29 07:13:17;;;;;;;8.48;7.57;;;22.40;99.90;;;;;;5049734;28;20486;-74
2022/06/29 07:15:43;;;;;;;8.55;7.75;;;22.50;99.90;;;;;;5048362;28;20120;-74
2022/06/29 07:18:08;;;;;;;8.27;7.50;;;22.40;99.90;;;;;;5069781;28;20032;-74
2022/06/29 07:20:34;;;;;;;8.40;7.63;;;22.40;99.90;;;;;;5072213;28;20067;-74
2022/06/29 07:23:00;;;;;;;7.97;7.28;;;22.30;99.90;;;;;;5056388;28;20025;-74
2022/06/29 07:25:25;;;;;;;8.70;7.72;;;22.40;99.90;;;;;;5052786;28;20052;-74
2022/06/29 07:27:51;;;;;;;8.18;7.38;;;22.80;99.90;;;;;;5041325;28;20494;-74
2022/06/29 07:30:16;;;;;;;8.15;7.35;;;22.70;99.90;;;;;;5072052;28;20421;-74
2022/06/29 07:32:42;;;;;;;7.80;7.10;;;22.80;99.90;;;;;;5072436;28;20087;-74
2022/06/29 07:35:07;;;;;;;9.20;7.43;;;22.80;99.90;;;;;;5045731;28;20033;-74
2022/06/29 07:37:33;;;;;;;8.13;7.32;;;22.90;99.90;;;;;;5055024;28;20028;-74
2022/06/29 07:39:59;;;;;;;8.93;8.02;;;23.20;99.90;;;;;;5072100;28;20032;-74
2022/06/29 07:42:24;;;;;;;8.50;7.70;;;23.30;99.90;;;;;;5043796;28;20498;-75
2022/06/29 07:44:50;;;;;;;8.20;7.40;;;23.60;99.90;;;;;;5040466;28;20025;-74
2022/06/29 07:47:16;;;;;;;8.02;7.22;;;23.80;99.90;;;;;;5047153;28;20021;-73
2022/06/29 07:49:41;;;;;;;7.57;6.97;;;23.90;99.90;;;;;;5051756;28;20552;-74
2022/06/29 07:52:07;;;;;;;8.02;7.22;;;24.00;99.90;;;;;;5067320;28;20039;-74
2022/06/29 07:54:33;;;;;;;7.93;7.20;;;23.50;99.90;;;;;;5056581;28;20033;-74
2022/06/29 07:56:58;;;;;;;8.90;8.00;;;23.60;99.90;;;;;;5056541;28;20036;-74
2022/06/29 07:59:24;;;;;;;7.95;7.15;;;23.80;99.90;;;;;;5073381;28;20589;-74
2022/06/29 08:01:49;;;;;;;8.38;7.63;;;24.10;99.90;;;;;;5035080;28;20646;-74
2022/06/29 08:04:15;;;;;;;7.72;7.03;;;24.20;99.90;;;;;;5062686;28;20483;-74
2022/06/29 08:06:40;;;;;;;8.68;7.88;;;24.50;99.90;;;;;;5054372;28;20519;-75
2022/06/29 08:09:06;;;;;;;7.88;7.07;;;24.40;99.90;;;;;;5071976;28;20024;-72
2022/06/29 08:11:32;;;;;;;7.85;7.05;;;24.30;99.90;;;;;;5063893;28;20110;-71
2022/06/29 08:13:57;;;;;;;8.05;7.15;;;24.50;99.90;;;;;;5051735;28;20025;-71
2022/06/29 08:16:23;;;;;;;8.13;7.20;;;24.90;99.90;;;;;;5051774;28;20387;-72
2022/06/29 08:18:49;;;;;;;8.10;7.07;;;24.70;99.90;;;;;;5051813;28;20074;-72
2022/06/29 08:21:14;;;;;;;9.15;7.40;;;24.50;99.90;;;;;;5051019;28;20542;-71
2022/06/29 08:23:40;;;;;;;7.20;6.40;;;24.70;99.90;;;;;;5051697;28;20025;-71
2022/06/29 08:26:05;;;;;;;8.75;7.55;;;24.50;99.90;;;;;;5049899;28;20025;-71
2022/06/29 08:28:31;;;;;;;8.55;7.30;;;24.30;99.90;;;;;;5045177;28;20394;-71
2022/06/29 08:30:56;;;;;;;7.82;6.95;;;24.20;99.90;;;;;;5050433;28;20029;-72
2022/06/29 08:33:22;;;;;;;10.70;6.93;;;24.30;99.90;;;;;;5051310;28;20111;-72
2022/06/29 08:35:49;;;;;;;7.68;6.97;;;24.70;99.90;;;;;;5051494;28;20033;-71
2022/06/29 08:38:15;;;;;;;7.72;6.97;;;25.00;99.90;;;;;;5042655;28;20033;-71
2022/06/29 08:40:48;;;;;;;7.18;6.47;;;24.40;99.90;;;;;;5050273;28;20024;-71
2022/06/29 08:43:16;;;;;;;7.22;6.40;;;24.60;99.90;;;;;;5051381;28;20063;-71
2022/06/29 08:45:46;;;;;;;7.30;6.60;;;24.50;99.90;;;;;;5051325;28;20544;-71
2022/06/29 08:48:13;;;;;;;7.97;6.47;;;24.80;99.90;;;;;;5051438;28;20029;-71
2022/06/29 08:50:40;;;;;;;7.18;6.47;;;24.80;99.90;;;;;;5051130;28;20525;-71
2022/06/29 08:53:07;;;;;;;8.35;6.53;;;25.10;99.90;;;;;;5047060;28;20041;-71
2022/06/29 08:55:38;;;;;;;9.27;6.40;;;25.20;99.90;;;;;;5051227;28;20029;-71
2022/06/29 08:58:06;;;;;;;6.78;5.93;;;25.40;99.90;;;;;;5051353;28;20048;-71
2022/06/29 09:00:32;;;;;;;6.72;6.13;;;25.10;99.90;;;;;;5047750;28;20033;-71
2022/06/29 09:02:58;;;;;;;6.95;6.13;;;25.00;99.90;;;;;;5052565;28;20025;-71
2022/06/29 09:05:24;;;;;;;8.75;6.10;;;24.80;99.90;;;;;;5055344;28;20064;-71
2022/06/29 09:07:49;;;;;;;6.70;6.10;;;25.30;99.90;;;;;;5055265;28;20059;-71
2022/06/29 09:10:18;;;;;;;7.03;6.30;;;25.20;99.90;;;;;;5054765;28;20075;-71
2022/06/29 09:12:52;;;;;;;6.88;6.15;;;25.80;99.90;;;;;;5055076;28;20083;-71
2022/06/29 09:15:52;;;;;;;7.53;5.82;;;25.60;99.90;;;;;;5055309;28;20104;-71
2022/06/29 09:18:31;;;;;;;6.57;5.90;;;25.60;99.90;;;;;;5059406;28;20024;-71
2022/06/29 09:21:05;;;;;;;6.00;5.50;;;25.50;99.90;;;;;;5051236;28;20036;-71
2022/06/29 09:23:33;;;;;;;7.45;6.47;;;25.70;99.90;;;;;;5052193;28;20021;-71
2022/06/29 09:25:59;;;;;;;7.18;6.47;;;25.60;99.90;;;;;;5054275;28;20024;-71
2022/06/29 09:28:26;;;;;;;6.78;6.07;;;25.60;99.90;;;;;;5054936;28;20032;-71
2022/06/29 09:30:53;;;;;;;7.20;6.47;;;25.80;99.90;;;;;;5054217;28;20021;-71
2022/06/29 09:33:21;;;;;;;7.00;6.30;;;25.90;99.90;;;;;;5054665;28;20033;-71
2022/06/29 09:36:07;;;;;;;6.22;5.55;;;26.20;99.90;;;;;;5036811;28;20032;-71
2022/06/29 09:38:34;;;;;;;5.82;5.13;;;25.80;99.90;;;;;;5036722;28;20029;-71
2022/06/29 09:40:59;;;;;;;5.95;5.30;;;25.90;99.90;;;;;;5053991;28;20021;-71
2022/06/29 09:43:25;;;;;;;7.20;5.55;;;25.80;99.90;;;;;;5054681;28;20074;-71
2022/06/29 09:45:53;;;;;;;6.47;5.88;;;26.00;99.90;;;;;;5054334;28;20033;-71
2022/06/29 09:48:21;;;;;;;6.65;6.03;;;25.80;99.90;;;;;;5054601;28;20104;-71
2022/06/29 09:50:50;;;;;;;6.20;5.60;;;26.00;99.90;;;;;;5035892;28;20020;-71
2022/06/29 09:53:18;;;;;;;6.28;5.70;;;26.00;99.90;;;;;;5054409;28;20025;-71
2022/06/29 09:55:48;;;;;;;5.57;5.07;;;26.10;99.90;;;;;;5054383;28;20029;-71
2022/06/29 09:58:18;;;;;;;7.45;6.00;;;26.20;99.90;;;;;;5054422;28;20032;-71
2022/06/29 10:03:31;;;;;;;6.85;6.13;;;26.10;99.90;;;;;;5050586;28;20724;-71
2022/06/29 10:06:05;;;;;;;6.68;6.00;;;26.20;99.90;;;;;;5053468;28;20017;-71
2022/06/29 10:08:34;;;;;;;7.25;6.55;;;26.20;99.90;;;;;;5045280;28;20017;-71
2022/06/29 10:13:39;;;;;;;7.00;6.30;;;26.20;99.90;;;;;;5044828;28;20029;-71
2022/06/29 10:14:00;;;;;;;7.15;6.55;;;26.00;99.90;;;;;;5042174;28;20040;-71
2022/06/29 10:16:36;;;;;;;6.95;6.32;;;25.70;99.90;;;;;;5054190;28;20494;-71
2022/06/29 10:19:28;;;;;;;7.68;6.25;;;25.70;99.90;;;;;;5054041;28;20035;-71
2022/06/29 10:21:56;;;;;;;9.18;6.30;;;25.70;99.90;;;;;;5053536;28;20067;-71
2022/06/29 10:24:21;;;;;;;8.77;6.72;;;25.90;99.90;;;;;;5053126;28;20055;-71
2022/06/29 10:26:47;;;;;;;6.85;5.88;;;25.80;99.90;;;;;;5049590;28;20021;-71
2022/06/29 10:29:19;;;;;;;7.88;6.65;;;25.90;99.90;;;;;;5053806;28;20383;-71
2022/06/29 10:31:54;;;;;;;9.02;6.70;;;26.00;99.90;;;;;;5052999;28;20525;-71
2022/06/29 10:34:31;;;;;;;8.23;6.67;;;26.40;99.90;;;;;;5053558;28;20437;-71
2022/06/29 10:37:04;;;;;;;9.32;6.53;;;26.30;99.90;;;;;;5049608;28;20436;-71
2022/06/29 10:39:45;;;;;;;10.00;6.53;;;26.30;99.90;;;;;;5053377;28;20048;-71
2022/06/29 10:45:15;;;;;;;;;;;26.30;99.90;;;;;;5054018;28;20438;-71
2022/06/29 10:47:54;;;;;;;6.78;6.13;;;26.40;99.90;;;;;;5053367;28;19904;-71
2022/06/29 10:50:22;;;;;;;7.70;6.43;;;26.60;99.90;;;;;;5052640;28;20034;-71
2022/06/29 10:52:51;;;;;;;9.43;6.57;;;26.20;99.90;;;;;;5035363;28;20554;-71
2022/06/29 10:55:18;;;;;;;8.35;6.93;;;26.50;99.90;;;;;;5049409;28;20056;-71
2022/06/29 10:57:45;;;;;;;7.20;6.50;;;26.40;99.90;;;;;;5053582;28;20021;-71
2022/06/29 11:00:28;;;;;;;7.78;7.00;;;26.60;99.90;;;;;;5052875;28;20040;-71
2022/06/29 11:02:54;;;;;;;7.25;6.45;;;26.80;99.90;;;;;;5059204;28;20119;-71
2022/06/29 11:05:20;;;;;;;8.40;6.90;;;27.30;99.90;;;;;;5073143;28;20096;-71
2022/06/29 11:13:04;;;;;;;8.57;7.45;;;27.50;99.90;;;;;;5072999;28;20086;-71
2022/06/29 11:16:08;;;;;;;8.93;7.32;;;27.60;99.90;;;;;;5072938;28;20024;-71
2022/06/29 11:18:31;;;;;;;9.80;7.70;;;27.80;99.90;;;;;;5068753;28;20037;-71
2022/06/29 11:21:03;;;;;;;8.93;7.40;;;27.70;99.90;;;;;;5072149;28;20497;-72
2022/06/29 11:23:31;;;;;;;8.48;7.60;;;27.70;99.90;;;;;;5071839;28;20025;-71
2022/06/29 11:25:57;;;;;;;10.63;7.78;;;27.60;99.90;;;;;;5072644;28;20017;-71
2022/06/29 11:28:34;;;;;;;9.30;8.00;;;27.60;99.90;;;;;;5072687;28;20016;-71
2022/06/29 11:31:10;;;;;;;8.80;7.97;;;27.80;99.90;;;;;;5071853;28;20509;-71
2022/06/29 11:33:41;;;;;;;9.13;7.70;;;27.70;99.90;;;;;;5072439;28;20068;-72
2022/06/29 11:36:12;;;;;;;10.48;8.10;;;27.60;99.90;;;;;;5072388;28;20028;-71
2022/06/29 11:38:49;;;;;;;8.48;7.68;;;27.70;99.90;;;;;;5072440;28;20046;-71
2022/06/29 11:41:17;;;;;;;9.40;7.45;;;27.80;99.90;;;;;;5071718;28;20390;-71
2022/06/29 11:43:44;;;;;;;9.30;8.25;;;28.10;99.90;;;;;;5049793;28;20017;-71
2022/06/29 11:46:21;;;;;;;8.27;7.47;;;28.60;99.90;;;;;;5042393;28;20022;-71
2022/06/29 11:51:37;;;;;;;10.32;6.97;;;28.60;99.90;;;;;;5051937;28;20128;-70
2022/06/29 11:54:08;;;;;;;8.82;7.40;;;28.20;99.90;;;;;;5052093;28;20075;-71
2022/06/29 11:56:34;;;;;;;8.70;7.80;;;28.50;99.90;;;;;;5052193;28;20049;-71
2022/06/29 11:59:04;;;;;;;9.18;7.47;;;28.30;99.90;;;;;;5052416;28;20060;-71
2022/06/29 12:01:30;;;;;;;8.85;7.82;;;27.90;99.90;;;;;;5044784;28;20025;-71
2022/06/29 12:03:57;;;;;;;9.55;7.05;;;27.40;99.90;;;;;;5048807;28;20090;-71
2022/06/29 12:06:27;;;;;;;8.10;7.30;;;27.50;99.90;;;;;;5051909;28;20024;-71
2022/06/29 12:08:54;;;;;;;11.50;7.35;;;27.90;99.90;;;;;;5046590;28;20018;-71
2022/06/29 12:11:21;;;;;;;7.82;6.78;;;29.00;99.90;;;;;;5051197;28;20499;-71
2022/06/29 12:13:48;;;;;;;7.13;6.43;;;28.70;99.90;;;;;;5044645;28;20076;-70
2022/06/29 12:16:14;;;;;;;8.57;6.90;;;28.80;99.90;;;;;;5051190;28;20025;-71
2022/06/29 12:18:39;;;;;;;8.90;7.00;;;29.10;99.90;;;;;;5051698;28;20474;-71
2022/06/29 12:21:05;;;;;;;10.30;7.15;;;29.60;99.90;;;;;;5050996;28;20053;-71
2022/06/29 12:23:31;;;;;;;7.63;6.93;;;29.80;99.90;;;;;;5051730;28;20024;-71
2022/06/29 12:25:58;;;;;;;9.77;7.47;;;30.50;99.90;;;;;;5051634;28;20568;-71
2022/06/29 12:28:23;;;;;;;7.95;7.15;;;29.90;99.90;;;;;;5051573;28;20476;-71
2022/06/29 12:30:51;;;;;;;7.65;6.85;;;28.60;99.90;;;;;;5048204;28;20040;-71
2022/06/29 12:33:17;;;;;;;8.75;5.95;;;29.30;99.90;;;;;;5051093;28;20475;-71
2022/06/29 12:35:42;;;;;;;6.90;6.20;;;30.00;99.90;;;;;;5051021;28;20025;-71
2022/06/29 12:38:08;;;;;;;12.52;6.45;;;30.00;99.90;;;;;;5051569;28;20032;-71
2022/06/29 12:40:38;;;;;;;7.18;6.20;;;28.40;99.90;;;;;;5050759;28;20078;-71
2022/06/29 12:43:04;;;;;;;9.55;6.28;;;28.80;99.90;;;;;;5043360;28;20028;-71
2022/06/29 12:45:29;;;;;;;7.10;6.40;;;30.20;99.90;;;;;;5051490;28;20033;-71
2022/06/29 12:47:55;;;;;;;7.82;6.43;;;30.90;99.90;;;;;;5051471;28;20025;-71
2022/06/29 12:50:21;;;;;;;6.78;6.18;;;30.90;99.90;;;;;;5047740;28;20027;-71
2022/06/29 12:52:51;;;;;;;6.82;6.03;;;30.20;99.90;;;;;;5050971;28;20025;-71
2022/06/29 12:55:18;;;;;;;5.97;5.40;;;30.40;99.90;;;;;;5051238;28;20021;-71
2022/06/29 12:57:45;;;;;;;10.13;6.32;;;31.20;99.90;;;;;;5051429;28;20049;-71